sensor_id;sensor_type;location;lat;lon;timestamp;temperature;humidity
6988;DHT22;3534;49.960;8.018;2023-05-16T00:01:45;15.50;99.90
6988;DHT22;3534;49.960;8.018;2023-05-16T00:04:12;15.50;99.90
6988;DHT22;3534;49.960;8.018;2023-05-16T00:06:39;15.50;99.90
6988;DHT22;3534;49.960;8.018;2023-05-16T00:09:07;15.50;99.90
6988;DHT22;3534;49.960;8.018;2023-05-16T00:11:34;15.60;99.90
6988;DHT22;3534;49.960;8.018;2023-05-16T00:14:00;15.60;99.90
6988;DHT22;3534;49.960;8.018;2023-05-16T00:16:28;15.60;99.90
6988;DHT22;3534;49.960;8.018;2023-05-16T00:18:55;15.50;99.90
6988;DHT22;3534;49.960;8.018;2023-05-16T00:21:22;15.60;99.90
6988;DHT22;3534;49.960;8.018;2023-05-16T00:23:49;15.50;99.90
6988;DHT22;3534;49.960;8.018;2023-05-16T00:26:18;15.40;99.90
6988;DHT22;3534;49.960;8.018;2023-05-16T00:28:45;15.30;99.90
6988;DHT22;3534;49.960;8.018;2023-05-16T00:31:11;15.10;99.90
6988;DHT22;3534;49.960;8.018;2023-05-16T00:33:38;15.10;99.90
6988;DHT22;3534;49.960;8.018;2023-05-16T00:36:05;15.10;99.90
6988;DHT22;3534;49.960;8.018;2023-05-16T00:38:32;15.00;99.90
6988;DHT22;3534;49.960;8.018;2023-05-16T00:40:59;15.00;99.90
6988;DHT22;3534;49.960;8.018;2023-05-16T00:43:27;15.10;99.90
6988;DHT22;3534;49.960;8.018;2023-05-16T00:45:54;15.10;99.90
6988;DHT22;3534;49.960;8.018;2023-05-16T00:48:22;15.10;99.90
6988;DHT22;3534;49.960;8.018;2023-05-16T00:50:49;15.10;99.90
6988;DHT22;3534;49.960;8.018;2023-05-16T00:53:17;15.10;99.90
6988;DHT22;3534;49.960;8.018;2023-05-16T00:55:44;15.00;99.90
6988;DHT22;3534;49.960;8.018;2023-05-16T00:58:11;15.10;99.90
6988;DHT22;3534;49.960;8.018;2023-05-16T01:00:40;15.10;99.90
6988;DHT22;3534;49.960;8.018;2023-05-16T01:03:07;15.10;99.90
6988;DHT22;3534;49.960;8.018;2023-05-16T01:05:34;15.00;99.90
6988;DHT22;3534;49.960;8.018;2023-05-16T01:08:00;15.00;99.90
6988;DHT22;3534;49.960;8.018;2023-05-16T01:10:31;15.10;99.90
6988;DHT22;3534;49.960;8.018;2023-05-16T01:13:08;15.10;99.90
6988;DHT22;3534;49.960;8.018;2023-05-16T01:15:45;15.10;99.90
6988;DHT22;3534;49.960;8.018;2023-05-16T01:18:18;15.10;99.90
6988;DHT22;3534;49.960;8.018;2023-05-16T01:20:55;15.10;99.90
6988;DHT22;3534;49.960;8.018;2023-05-16T01:23:39;15.00;99.90
6988;DHT22;3534;49.960;8.018;2023-05-16T01:26:19;15.00;99.90
6988;DHT22;3534;49.960;8.018;2023-05-16T01:28:48;15.00;99.90
6988;DHT22;3534;49.960;8.018;2023-05-16T01:31:15;15.00;99.90
6988;DHT22;3534;49.960;8.018;2023-05-16T01:33:42;14.90;99.90
6988;DHT22;3534;49.960;8.018;2023-05-16T01:36:14;14.70;99.90
6988;DHT22;3534;49.960;8.018;2023-05-16T01:38:47;14.60;99.90
6988;DHT22;3534;49.960;8.018;2023-05-16T01:41:23;14.60;99.90
6988;DHT22;3534;49.960;8.018;2023-05-16T01:43:53;14.60;99.90
6988;DHT22;3534;49.960;8.018;2023-05-16T01:46:23;14.40;99.90
6988;DHT22;3534;49.960;8.018;2023-05-16T01:48:57;14.30;99.90
6988;DHT22;3534;49.960;8.018;2023-05-16T01:51:29;14.30;99.90
6988;DHT22;3534;49.960;8.018;2023-05-16T01:54:01;14.30;99.90
6988;DHT22;3534;49.960;8.018;2023-05-16T01:56:31;14.30;99.90
6988;DHT22;3534;49.960;8.018;2023-05-16T01:58:58;14.30;99.90
6988;DHT22;3534;49.960;8.018;2023-05-16T02:01:26;14.30;99.90
6988;DHT22;3534;49.960;8.018;2023-05-16T02:03:52;14.30;99.90
6988;DHT22;3534;49.960;8.018;2023-05-16T02:06:19;14.30;99.90
6988;DHT22;3534;49.960;8.018;2023-05-16T02:08:47;14.30;99.90
6988;DHT22;3534;49.960;8.018;2023-05-16T02:11:13;14.40;99.90
6988;DHT22;3534;49.960;8.018;2023-05-16T02:13:41;14.40;99.90
6988;DHT22;3534;49.960;8.018;2023-05-16T02:16:09;14.50;99.90
6988;DHT22;3534;49.960;8.018;2023-05-16T02:18:36;14.60;99.90
6988;DHT22;3534;49.960;8.018;2023-05-16T02:21:03;14.50;99.90
6988;DHT22;3534;49.960;8.018;2023-05-16T02:23:29;14.50;99.90
6988;DHT22;3534;49.960;8.018;2023-05-16T02:25:56;14.40;99.90
6988;DHT22;3534;49.960;8.018;2023-05-16T02:28:23;14.30;99.90
6988;DHT22;3534;49.960;8.018;2023-05-16T02:30:56;14.20;99.90
6988;DHT22;3534;49.960;8.018;2023-05-16T02:33:23;14.10;99.90
6988;DHT22;3534;49.960;8.018;2023-05-16T02:35:50;14.10;99.90
6988;DHT22;3534;49.960;8.018;2023-05-16T02:38:16;14.20;99.90
6988;DHT22;3534;49.960;8.018;2023-05-16T02:40:45;14.30;99.90
6988;DHT22;3534;49.960;8.018;2023-05-16T02:43:12;14.30;99.90
6988;DHT22;3534;49.960;8.018;2023-05-16T02:45:38;14.20;99.90
6988;DHT22;3534;49.960;8.018;2023-05-16T02:48:07;14.20;99.90
6988;DHT22;3534;49.960;8.018;2023-05-16T02:50:33;14.20;99.90
6988;DHT22;3534;49.960;8.018;2023-05-16T02:53:00;14.30;99.90
6988;DHT22;3534;49.960;8.018;2023-05-16T02:55:27;14.30;99.90
6988;DHT22;3534;49.960;8.018;2023-05-16T02:57:54;14.30;99.90
6988;DHT22;3534;49.960;8.018;2023-05-16T03:00:20;14.30;99.90
6988;DHT22;3534;49.960;8.018;2023-05-16T03:02:48;14.10;99.90
6988;DHT22;3534;49.960;8.018;2023-05-16T03:05:16;13.90;99.90
6988;DHT22;3534;49.960;8.018;2023-05-16T03:07:42;13.90;99.90
6988;DHT22;3534;49.960;8.018;2023-05-16T03:10:09;14.00;99.90
6988;DHT22;3534;49.960;8.018;2023-05-16T03:12:36;14.10;99.90
6988;DHT22;3534;49.960;8.018;2023-05-16T03:15:03;14.20;99.90
6988;DHT22;3534;49.960;8.018;2023-05-16T03:17:30;14.30;99.90
6988;DHT22;3534;49.960;8.018;2023-05-16T03:19:57;14.30;99.90
6988;DHT22;3534;49.960;8.018;2023-05-16T03:22:25;14.30;99.90
6988;DHT22;3534;49.960;8.018;2023-05-16T03:24:51;14.40;99.90
6988;DHT22;3534;49.960;8.018;2023-05-16T03:27:18;14.40;99.90
6988;DHT22;3534;49.960;8.018;2023-05-16T03:29:44;14.50;99.90
6988;DHT22;3534;49.960;8.018;2023-05-16T03:32:11;14.50;99.90
6988;DHT22;3534;49.960;8.018;2023-05-16T03:34:38;14.40;99.90
6988;DHT22;3534;49.960;8.018;2023-05-16T03:37:05;14.40;99.90
6988;DHT22;3534;49.960;8.018;2023-05-16T03:39:33;14.40;99.90
6988;DHT22;3534;49.960;8.018;2023-05-16T03:42:00;14.30;99.90
6988;DHT22;3534;49.960;8.018;2023-05-16T03:44:26;14.20;99.90
6988;DHT22;3534;49.960;8.018;2023-05-16T03:46:53;14.20;99.90
6988;DHT22;3534;49.960;8.018;2023-05-16T03:49:24;14.30;99.90
6988;DHT22;3534;49.960;8.018;2023-05-16T03:51:52;14.40;99.90
6988;DHT22;3534;49.960;8.018;2023-05-16T03:54:18;14.50;99.90
6988;DHT22;3534;49.960;8.018;2023-05-16T03:56:46;14.50;99.90
6988;DHT22;3534;49.960;8.018;2023-05-16T03:59:13;14.50;99.90
6988;DHT22;3534;49.960;8.018;2023-05-16T04:01:39;14.50;99.90
6988;DHT22;3534;49.960;8.018;2023-05-16T04:04:06;14.40;99.90
6988;DHT22;3534;49.960;8.018;2023-05-16T04:06:33;14.30;99.90
6988;DHT22;3534;49.960;8.018;2023-05-16T04:08:59;14.30;99.90
6988;DHT22;3534;49.960;8.018;2023-05-16T04:11:26;14.30;99.90
6988;DHT22;3534;49.960;8.018;2023-05-16T04:13:54;14.30;99.90
6988;DHT22;3534;49.960;8.018;2023-05-16T04:16:21;14.40;99.90
6988;DHT22;3534;49.960;8.018;2023-05-16T04:18:47;14.40;99.90
6988;DHT22;3534;49.960;8.018;2023-05-16T04:21:14;14.50;99.90
6988;DHT22;3534;49.960;8.018;2023-05-16T04:23:41;14.50;99.90
6988;DHT22;3534;49.960;8.018;2023-05-16T04:26:07;14.50;99.90
6988;DHT22;3534;49.960;8.018;2023-05-16T04:28:34;14.50;99.90
6988;DHT22;3534;49.960;8.018;2023-05-16T04:31:02;14.60;99.90
6988;DHT22;3534;49.960;8.018;2023-05-16T04:33:29;14.70;99.90
6988;DHT22;3534;49.960;8.018;2023-05-16T04:35:56;14.60;99.90
6988;DHT22;3534;49.960;8.018;2023-05-16T04:38:23;14.70;99.90
6988;DHT22;3534;49.960;8.018;2023-05-16T04:40:50;14.70;99.90
6988;DHT22;3534;49.960;8.018;2023-05-16T04:43:17;14.70;99.90
6988;DHT22;3534;49.960;8.018;2023-05-16T04:45:44;14.70;99.90
6988;DHT22;3534;49.960;8.018;2023-05-16T04:48:12;14.70;99.90
6988;DHT22;3534;49.960;8.018;2023-05-16T04:50:39;14.80;99.90
6988;DHT22;3534;49.960;8.018;2023-05-16T04:53:06;14.80;99.90
6988;DHT22;3534;49.960;8.018;2023-05-16T04:55:33;14.70;99.90
6988;DHT22;3534;49.960;8.018;2023-05-16T04:57:59;14.60;99.90
6988;DHT22;3534;49.960;8.018;2023-05-16T05:00:26;14.50;99.90
6988;DHT22;3534;49.960;8.018;2023-05-16T05:02:53;14.60;99.90
6988;DHT22;3534;49.960;8.018;2023-05-16T05:05:21;14.60;99.90
6988;DHT22;3534;49.960;8.018;2023-05-16T05:07:47;14.60;99.90
6988;DHT22;3534;49.960;8.018;2023-05-16T05:10:14;14.50;99.90
6988;DHT22;3534;49.960;8.018;2023-05-16T05:12:41;14.60;99.90
6988;DHT22;3534;49.960;8.018;2023-05-16T05:15:08;14.60;99.90
6988;DHT22;3534;49.960;8.018;2023-05-16T05:17:34;14.60;99.90
6988;DHT22;3534;49.960;8.018;2023-05-16T05:20:02;14.70;99.90
6988;DHT22;3534;49.960;8.018;2023-05-16T05:22:32;14.70;99.90
6988;DHT22;3534;49.960;8.018;2023-05-16T05:24:59;14.60;99.90
6988;DHT22;3534;49.960;8.018;2023-05-16T05:27:26;14.40;99.90
6988;DHT22;3534;49.960;8.018;2023-05-16T05:29:53;14.30;99.90
6988;DHT22;3534;49.960;8.018;2023-05-16T05:32:19;14.30;99.90
6988;DHT22;3534;49.960;8.018;2023-05-16T05:34:46;14.40;99.90
6988;DHT22;3534;49.960;8.018;2023-05-16T05:37:13;14.30;99.90
6988;DHT22;3534;49.960;8.018;2023-05-16T05:39:41;14.20;99.90
6988;DHT22;3534;49.960;8.018;2023-05-16T05:42:08;14.10;99.90
6988;DHT22;3534;49.960;8.018;2023-05-16T05:44:36;14.10;99.90
6988;DHT22;3534;49.960;8.018;2023-05-16T05:47:03;14.20;99.90
6988;DHT22;3534;49.960;8.018;2023-05-16T05:49:30;14.30;99.90
6988;DHT22;3534;49.960;8.018;2023-05-16T05:51:57;14.40;99.90
6988;DHT22;3534;49.960;8.018;2023-05-16T05:54:24;14.50;99.90
6988;DHT22;3534;49.960;8.018;2023-05-16T05:56:52;14.50;99.90
6988;DHT22;3534;49.960;8.018;2023-05-16T05:59:19;14.60;99.90
6988;DHT22;3534;49.960;8.018;2023-05-16T06:01:45;14.60;99.90
6988;DHT22;3534;49.960;8.018;2023-05-16T06:04:16;14.60;99.90
6988;DHT22;3534;49.960;8.018;2023-05-16T06:06:43;14.60;99.90
6988;DHT22;3534;49.960;8.018;2023-05-16T06:09:10;14.60;99.90
6988;DHT22;3534;49.960;8.018;2023-05-16T06:11:38;14.70;99.90
6988;DHT22;3534;49.960;8.018;2023-05-16T06:14:06;14.70;99.90
6988;DHT22;3534;49.960;8.018;2023-05-16T06:16:33;14.70;99.90
6988;DHT22;3534;49.960;8.018;2023-05-16T06:19:00;14.70;99.90
6988;DHT22;3534;49.960;8.018;2023-05-16T06:21:26;14.90;99.90
6988;DHT22;3534;49.960;8.018;2023-05-16T06:23:53;14.90;99.90
6988;DHT22;3534;49.960;8.018;2023-05-16T06:26:19;14.70;99.90
6988;DHT22;3534;49.960;8.018;2023-05-16T06:28:47;14.50;99.90
6988;DHT22;3534;49.960;8.018;2023-05-16T06:31:15;14.40;99.90
6988;DHT22;3534;49.960;8.018;2023-05-16T06:33:41;14.40;99.90
6988;DHT22;3534;49.960;8.018;2023-05-16T06:36:08;14.50;99.90
6988;DHT22;3534;49.960;8.018;2023-05-16T06:38:35;14.60;99.90
6988;DHT22;3534;49.960;8.018;2023-05-16T06:41:02;14.70;99.90
6988;DHT22;3534;49.960;8.018;2023-05-16T06:43:28;14.70;99.90
6988;DHT22;3534;49.960;8.018;2023-05-16T06:45:55;14.80;99.90
6988;DHT22;3534;49.960;8.018;2023-05-16T06:48:23;14.90;99.90
6988;DHT22;3534;49.960;8.018;2023-05-16T06:50:50;15.00;99.90
6988;DHT22;3534;49.960;8.018;2023-05-16T06:53:17;15.00;99.90
6988;DHT22;3534;49.960;8.018;2023-05-16T06:55:44;15.00;99.90
6988;DHT22;3534;49.960;8.018;2023-05-16T06:58:11;15.00;99.90
6988;DHT22;3534;49.960;8.018;2023-05-16T07:00:37;15.10;99.90
6988;DHT22;3534;49.960;8.018;2023-05-16T07:03:04;15.20;99.90
6988;DHT22;3534;49.960;8.018;2023-05-16T07:05:32;15.20;99.90
6988;DHT22;3534;49.960;8.018;2023-05-16T07:07:59;15.20;99.90
6988;DHT22;3534;49.960;8.018;2023-05-16T07:10:25;15.10;99.90
6988;DHT22;3534;49.960;8.018;2023-05-16T07:12:52;15.10;99.90
6988;DHT22;3534;49.960;8.018;2023-05-16T07:15:19;15.20;99.90
6988;DHT22;3534;49.960;8.018;2023-05-16T07:17:46;15.20;99.90
6988;DHT22;3534;49.960;8.018;2023-05-16T07:20:13;15.20;99.90
6988;DHT22;3534;49.960;8.018;2023-05-16T07:22:41;15.00;99.90
6988;DHT22;3534;49.960;8.018;2023-05-16T07:25:08;14.70;99.90
6988;DHT22;3534;49.960;8.018;2023-05-16T07:27:37;14.60;99.90
6988;DHT22;3534;49.960;8.018;2023-05-16T07:30:06;14.70;99.90
6988;DHT22;3534;49.960;8.018;2023-05-16T07:32:33;14.60;99.90
6988;DHT22;3534;49.960;8.018;2023-05-16T07:35:01;14.60;99.90
6988;DHT22;3534;49.960;8.018;2023-05-16T07:37:27;14.80;99.90
6988;DHT22;3534;49.960;8.018;2023-05-16T07:39:55;14.90;99.90
6988;DHT22;3534;49.960;8.018;2023-05-16T07:42:22;15.00;99.90
6988;DHT22;3534;49.960;8.018;2023-05-16T07:44:49;15.00;99.90
6988;DHT22;3534;49.960;8.018;2023-05-16T07:47:15;14.90;99.90
6988;DHT22;3534;49.960;8.018;2023-05-16T07:49:42;15.00;99.90
6988;DHT22;3534;49.960;8.018;2023-05-16T07:52:09;15.00;99.90
6988;DHT22;3534;49.960;8.018;2023-05-16T07:54:35;15.10;99.90
6988;DHT22;3534;49.960;8.018;2023-05-16T07:57:04;15.10;99.90
6988;DHT22;3534;49.960;8.018;2023-05-16T07:59:30;15.20;99.90
6988;DHT22;3534;49.960;8.018;2023-05-16T08:01:57;15.20;99.90
6988;DHT22;3534;49.960;8.018;2023-05-16T08:04:24;15.10;99.90
6988;DHT22;3534;49.960;8.018;2023-05-16T08:06:50;15.00;99.90
6988;DHT22;3534;49.960;8.018;2023-05-16T08:09:17;14.80;99.90
6988;DHT22;3534;49.960;8.018;2023-05-16T08:11:44;14.60;99.90
6988;DHT22;3534;49.960;8.018;2023-05-16T08:14:12;14.60;99.90
6988;DHT22;3534;49.960;8.018;2023-05-16T08:16:39;14.70;99.90
6988;DHT22;3534;49.960;8.018;2023-05-16T08:19:06;14.70;99.90
6988;DHT22;3534;49.960;8.018;2023-05-16T08:21:33;14.80;99.90
6988;DHT22;3534;49.960;8.018;2023-05-16T08:23:59;14.60;99.90
6988;DHT22;3534;49.960;8.018;2023-05-16T08:26:26;14.70;99.90
6988;DHT22;3534;49.960;8.018;2023-05-16T08:28:52;14.70;99.90
6988;DHT22;3534;49.960;8.018;2023-05-16T08:31:20;14.60;99.90
6988;DHT22;3534;49.960;8.018;2023-05-16T08:33:47;14.70;99.90
6988;DHT22;3534;49.960;8.018;2023-05-16T08:36:14;14.80;99.90
6988;DHT22;3534;49.960;8.018;2023-05-16T08:38:44;14.60;99.90
6988;DHT22;3534;49.960;8.018;2023-05-16T08:41:10;14.60;99.90
6988;DHT22;3534;49.960;8.018;2023-05-16T08:43:37;14.70;99.90
6988;DHT22;3534;49.960;8.018;2023-05-16T08:46:06;14.80;99.90
6988;DHT22;3534;49.960;8.018;2023-05-16T08:48:35;14.90;99.90
6988;DHT22;3534;49.960;8.018;2023-05-16T08:51:05;14.80;99.90
6988;DHT22;3534;49.960;8.018;2023-05-16T08:53:38;14.90;99.90
6988;DHT22;3534;49.960;8.018;2023-05-16T08:56:06;14.90;99.90
6988;DHT22;3534;49.960;8.018;2023-05-16T08:58:33;14.90;99.90
6988;DHT22;3534;49.960;8.018;2023-05-16T09:01:01;15.00;99.90
6988;DHT22;3534;49.960;8.018;2023-05-16T09:03:34;15.00;99.90
6988;DHT22;3534;49.960;8.018;2023-05-16T09:06:01;14.90;99.90
6988;DHT22;3534;49.960;8.018;2023-05-16T09:08:28;14.60;99.90
6988;DHT22;3534;49.960;8.018;2023-05-16T09:10:55;14.70;99.90
6988;DHT22;3534;49.960;8.018;2023-05-16T09:13:22;14.70;99.90
6988;DHT22;3534;49.960;8.018;2023-05-16T09:16:07;14.80;99.90
6988;DHT22;3534;49.960;8.018;2023-05-16T09:18:35;14.60;99.90
6988;DHT22;3534;49.960;8.018;2023-05-16T09:21:02;14.70;99.90
6988;DHT22;3534;49.960;8.018;2023-05-16T09:23:30;14.80;99.90
6988;DHT22;3534;49.960;8.018;2023-05-16T09:25:57;14.80;99.90
6988;DHT22;3534;49.960;8.018;2023-05-16T09:28:24;14.80;99.90
6988;DHT22;3534;49.960;8.018;2023-05-16T09:30:51;14.70;99.90
6988;DHT22;3534;49.960;8.018;2023-05-16T09:33:21;14.70;99.90
6988;DHT22;3534;49.960;8.018;2023-05-16T09:35:55;14.70;99.90
6988;DHT22;3534;49.960;8.018;2023-05-16T09:38:23;14.80;99.90
6988;DHT22;3534;49.960;8.018;2023-05-16T09:40:50;14.80;99.90
6988;DHT22;3534;49.960;8.018;2023-05-16T09:43:19;14.60;99.90
6988;DHT22;3534;49.960;8.018;2023-05-16T09:45:47;14.70;99.90
6988;DHT22;3534;49.960;8.018;2023-05-16T09:48:15;14.70;99.90
6988;DHT22;3534;49.960;8.018;2023-05-16T09:50:46;14.80;99.90
6988;DHT22;3534;49.960;8.018;2023-05-16T09:53:15;15.00;99.90
6988;DHT22;3534;49.960;8.018;2023-05-16T09:55:43;15.10;99.90
6988;DHT22;3534;49.960;8.018;2023-05-16T09:58:09;15.10;99.90
6988;DHT22;3534;49.960;8.018;2023-05-16T10:00:36;15.20;99.90
6988;DHT22;3534;49.960;8.018;2023-05-16T10:03:03;15.20;99.90
6988;DHT22;3534;49.960;8.018;2023-05-16T10:05:30;15.20;99.90
6988;DHT22;3534;49.960;8.018;2023-05-16T10:07:57;15.10;99.90
6988;DHT22;3534;49.960;8.018;2023-05-16T10:10:25;15.10;99.90
6988;DHT22;3534;49.960;8.018;2023-05-16T10:12:54;15.10;99.90
6988;DHT22;3534;49.960;8.018;2023-05-16T10:15:24;15.10;99.90
6988;DHT22;3534;49.960;8.018;2023-05-16T10:17:52;15.20;99.90
6988;DHT22;3534;49.960;8.018;2023-05-16T10:20:22;15.10;99.90
6988;DHT22;3534;49.960;8.018;2023-05-16T10:22:50;14.90;99.90
6988;DHT22;3534;49.960;8.018;2023-05-16T10:25:27;14.90;99.90
6988;DHT22;3534;49.960;8.018;2023-05-16T10:27:54;15.10;99.90
6988;DHT22;3534;49.960;8.018;2023-05-16T10:30:21;15.20;99.90
6988;DHT22;3534;49.960;8.018;2023-05-16T10:32:49;15.30;99.90
6988;DHT22;3534;49.960;8.018;2023-05-16T10:35:17;15.50;99.90
6988;DHT22;3534;49.960;8.018;2023-05-16T10:37:45;15.50;99.90
6988;DHT22;3534;49.960;8.018;2023-05-16T10:40:13;15.60;99.90
6988;DHT22;3534;49.960;8.018;2023-05-16T10:42:53;15.70;99.90
6988;DHT22;3534;49.960;8.018;2023-05-16T10:45:21;15.70;99.90
6988;DHT22;3534;49.960;8.018;2023-05-16T10:47:55;15.70;99.90
6988;DHT22;3534;49.960;8.018;2023-05-16T10:50:35;15.50;99.90
6988;DHT22;3534;49.960;8.018;2023-05-16T10:53:13;15.60;99.90
6988;DHT22;3534;49.960;8.018;2023-05-16T10:55:43;15.80;99.90
6988;DHT22;3534;49.960;8.018;2023-05-16T10:58:12;15.90;99.90
6988;DHT22;3534;49.960;8.018;2023-05-16T11:00:39;16.10;99.90
6988;DHT22;3534;49.960;8.018;2023-05-16T11:03:21;16.20;99.90
6988;DHT22;3534;49.960;8.018;2023-05-16T11:05:51;16.30;99.90
6988;DHT22;3534;49.960;8.018;2023-05-16T11:08:18;16.50;99.90
6988;DHT22;3534;49.960;8.018;2023-05-16T11:10:45;16.60;99.90
6988;DHT22;3534;49.960;8.018;2023-05-16T11:13:13;16.70;99.90
6988;DHT22;3534;49.960;8.018;2023-05-16T11:15:44;16.80;99.90
6988;DHT22;3534;49.960;8.018;2023-05-16T11:18:14;16.90;99.90
6988;DHT22;3534;49.960;8.018;2023-05-16T11:20:41;17.00;99.90
6988;DHT22;3534;49.960;8.018;2023-05-16T11:23:18;17.20;99.90
6988;DHT22;3534;49.960;8.018;2023-05-16T11:25:46;17.30;99.90
6988;DHT22;3534;49.960;8.018;2023-05-16T11:28:17;17.40;99.90
6988;DHT22;3534;49.960;8.018;2023-05-16T11:30:46;17.40;99.90
6988;DHT22;3534;49.960;8.018;2023-05-16T11:33:13;17.50;99.90
6988;DHT22;3534;49.960;8.018;2023-05-16T11:35:40;17.60;99.90
6988;DHT22;3534;49.960;8.018;2023-05-16T11:38:11;17.60;99.90
6988;DHT22;3534;49.960;8.018;2023-05-16T11:40:41;17.70;99.90
6988;DHT22;3534;49.960;8.018;2023-05-16T11:43:08;17.80;99.90
6988;DHT22;3534;49.960;8.018;2023-05-16T11:45:37;17.90;99.90
6988;DHT22;3534;49.960;8.018;2023-05-16T11:48:04;18.00;99.90
6988;DHT22;3534;49.960;8.018;2023-05-16T11:50:33;18.00;99.90
6988;DHT22;3534;49.960;8.018;2023-05-16T11:53:00;18.00;99.90
6988;DHT22;3534;49.960;8.018;2023-05-16T11:55:28;18.10;99.90
6988;DHT22;3534;49.960;8.018;2023-05-16T11:57:56;18.10;99.90
6988;DHT22;3534;49.960;8.018;2023-05-16T12:00:24;18.20;99.90
6988;DHT22;3534;49.960;8.018;2023-05-16T12:02:57;18.40;99.90
6988;DHT22;3534;49.960;8.018;2023-05-16T12:05:26;18.40;99.90
6988;DHT22;3534;49.960;8.018;2023-05-16T12:07:54;18.50;99.90
6988;DHT22;3534;49.960;8.018;2023-05-16T12:10:21;18.50;99.90
6988;DHT22;3534;49.960;8.018;2023-05-16T12:12:50;18.50;99.90
6988;DHT22;3534;49.960;8.018;2023-05-16T12:15:17;18.50;99.90
6988;DHT22;3534;49.960;8.018;2023-05-16T12:17:45;18.60;99.90
6988;DHT22;3534;49.960;8.018;2023-05-16T12:20:14;18.70;99.90
6988;DHT22;3534;49.960;8.018;2023-05-16T12:22:42;18.70;99.90
6988;DHT22;3534;49.960;8.018;2023-05-16T12:25:21;18.60;99.90
6988;DHT22;3534;49.960;8.018;2023-05-16T12:27:48;18.70;99.90
6988;DHT22;3534;49.960;8.018;2023-05-16T12:30:15;18.80;99.90
6988;DHT22;3534;49.960;8.018;2023-05-16T12:32:42;18.90;99.90
6988;DHT22;3534;49.960;8.018;2023-05-16T12:35:10;19.00;99.90
6988;DHT22;3534;49.960;8.018;2023-05-16T12:37:38;18.90;99.90
6988;DHT22;3534;49.960;8.018;2023-05-16T12:40:08;18.90;99.90
6988;DHT22;3534;49.960;8.018;2023-05-16T12:42:36;18.70;99.90
6988;DHT22;3534;49.960;8.018;2023-05-16T12:45:04;18.80;99.90
6988;DHT22;3534;49.960;8.018;2023-05-16T12:47:34;19.10;99.90
6988;DHT22;3534;49.960;8.018;2023-05-16T12:50:01;19.40;99.90
6988;DHT22;3534;49.960;8.018;2023-05-16T12:52:28;19.50;99.90
6988;DHT22;3534;49.960;8.018;2023-05-16T12:54:56;19.70;99.90
6988;DHT22;3534;49.960;8.018;2023-05-16T12:57:23;19.90;99.90
6988;DHT22;3534;49.960;8.018;2023-05-16T12:59:50;19.90;99.90
6988;DHT22;3534;49.960;8.018;2023-05-16T13:02:17;20.20;99.90
6988;DHT22;3534;49.960;8.018;2023-05-16T13:04:44;20.70;99.90
6988;DHT22;3534;49.960;8.018;2023-05-16T13:07:10;21.10;99.90
6988;DHT22;3534;49.960;8.018;2023-05-16T13:09:37;21.30;96.90
6988;DHT22;3534;49.960;8.018;2023-05-16T13:12:07;21.70;99.90
6988;DHT22;3534;49.960;8.018;2023-05-16T13:14:34;21.70;99.90
6988;DHT22;3534;49.960;8.018;2023-05-16T13:17:01;21.70;99.90
6988;DHT22;3534;49.960;8.018;2023-05-16T13:19:28;21.80;99.90
6988;DHT22;3534;49.960;8.018;2023-05-16T13:21:56;22.10;99.90
6988;DHT22;3534;49.960;8.018;2023-05-16T13:24:22;22.30;99.90
6988;DHT22;3534;49.960;8.018;2023-05-16T13:26:49;22.40;99.90
6988;DHT22;3534;49.960;8.018;2023-05-16T13:29:17;22.40;99.90
6988;DHT22;3534;49.960;8.018;2023-05-16T13:31:44;22.70;99.90
6988;DHT22;3534;49.960;8.018;2023-05-16T13:34:10;23.00;95.20
6988;DHT22;3534;49.960;8.018;2023-05-16T13:36:37;23.10;99.90
6988;DHT22;3534;49.960;8.018;2023-05-16T13:39:04;23.00;99.90
6988;DHT22;3534;49.960;8.018;2023-05-16T13:41:30;22.80;99.90
6988;DHT22;3534;49.960;8.018;2023-05-16T13:44:02;22.50;99.90
6988;DHT22;3534;49.960;8.018;2023-05-16T13:46:30;22.30;99.90
6988;DHT22;3534;49.960;8.018;2023-05-16T13:48:56;22.10;99.90
6988;DHT22;3534;49.960;8.018;2023-05-16T13:51:23;21.90;99.90
6988;DHT22;3534;49.960;8.018;2023-05-16T13:53:50;21.80;99.90
6988;DHT22;3534;49.960;8.018;2023-05-16T13:56:16;21.70;99.90
6988;DHT22;3534;49.960;8.018;2023-05-16T13:58:43;21.70;99.90
6988;DHT22;3534;49.960;8.018;2023-05-16T14:01:10;21.70;99.90
6988;DHT22;3534;49.960;8.018;2023-05-16T14:03:39;21.70;99.90
6988;DHT22;3534;49.960;8.018;2023-05-16T14:06:06;21.60;99.90
6988;DHT22;3534;49.960;8.018;2023-05-16T14:08:33;21.40;99.90
6988;DHT22;3534;49.960;8.018;2023-05-16T14:11:00;21.30;99.90
6988;DHT22;3534;49.960;8.018;2023-05-16T14:13:26;21.00;99.90
6988;DHT22;3534;49.960;8.018;2023-05-16T14:15:53;20.90;99.90
6988;DHT22;3534;49.960;8.018;2023-05-16T14:18:20;21.20;99.90
6988;DHT22;3534;49.960;8.018;2023-05-16T14:20:48;21.40;99.90
6988;DHT22;3534;49.960;8.018;2023-05-16T14:23:15;21.50;99.90
6988;DHT22;3534;49.960;8.018;2023-05-16T14:25:42;21.40;99.90
6988;DHT22;3534;49.960;8.018;2023-05-16T14:28:09;21.40;99.90
6988;DHT22;3534;49.960;8.018;2023-05-16T14:30:36;21.60;99.90
6988;DHT22;3534;49.960;8.018;2023-05-16T14:33:02;21.60;97.30
6988;DHT22;3534;49.960;8.018;2023-05-16T14:35:31;21.50;99.90
6988;DHT22;3534;49.960;8.018;2023-05-16T14:37:59;21.50;99.90
6988;DHT22;3534;49.960;8.018;2023-05-16T14:40:26;21.40;99.90
6988;DHT22;3534;49.960;8.018;2023-05-16T14:42:52;21.70;99.90
6988;DHT22;3534;49.960;8.018;2023-05-16T14:45:19;22.00;99.90
6988;DHT22;3534;49.960;8.018;2023-05-16T14:47:46;21.80;93.00
6988;DHT22;3534;49.960;8.018;2023-05-16T14:50:13;21.80;99.90
6988;DHT22;3534;49.960;8.018;2023-05-16T14:52:39;21.70;99.90
6988;DHT22;3534;49.960;8.018;2023-05-16T14:55:07;21.70;99.90
6988;DHT22;3534;49.960;8.018;2023-05-16T14:57:34;22.00;99.90
6988;DHT22;3534;49.960;8.018;2023-05-16T15:00:01;22.40;99.90
6988;DHT22;3534;49.960;8.018;2023-05-16T15:02:28;22.50;99.90
6988;DHT22;3534;49.960;8.018;2023-05-16T15:04:55;22.60;99.90
6988;DHT22;3534;49.960;8.018;2023-05-16T15:07:21;22.40;99.90
6988;DHT22;3534;49.960;8.018;2023-05-16T15:09:48;22.40;99.90
6988;DHT22;3534;49.960;8.018;2023-05-16T15:12:16;22.70;99.90
6988;DHT22;3534;49.960;8.018;2023-05-16T15:14:43;23.00;99.90
6988;DHT22;3534;49.960;8.018;2023-05-16T15:17:09;23.40;99.50
6988;DHT22;3534;49.960;8.018;2023-05-16T15:19:36;23.40;99.90
6988;DHT22;3534;49.960;8.018;2023-05-16T15:22:03;23.30;99.90
6988;DHT22;3534;49.960;8.018;2023-05-16T15:24:32;23.30;99.90
6988;DHT22;3534;49.960;8.018;2023-05-16T15:26:58;23.30;99.90
6988;DHT22;3534;49.960;8.018;2023-05-16T15:29:27;23.00;99.90
6988;DHT22;3534;49.960;8.018;2023-05-16T15:31:54;22.70;99.90
6988;DHT22;3534;49.960;8.018;2023-05-16T15:34:20;22.70;99.90
6988;DHT22;3534;49.960;8.018;2023-05-16T15:36:47;22.60;91.00
6988;DHT22;3534;49.960;8.018;2023-05-16T15:39:14;22.60;99.90
6988;DHT22;3534;49.960;8.018;2023-05-16T15:41:41;23.00;99.90
6988;DHT22;3534;49.960;8.018;2023-05-16T15:44:08;23.10;99.90
6988;DHT22;3534;49.960;8.018;2023-05-16T15:46:36;23.00;99.90
6988;DHT22;3534;49.960;8.018;2023-05-16T15:49:03;22.80;99.90
6988;DHT22;3534;49.960;8.018;2023-05-16T15:51:30;22.60;99.90
6988;DHT22;3534;49.960;8.018;2023-05-16T15:53:56;22.50;99.90
6988;DHT22;3534;49.960;8.018;2023-05-16T15:56:23;22.30;99.90
6988;DHT22;3534;49.960;8.018;2023-05-16T15:58:50;22.30;99.90
6988;DHT22;3534;49.960;8.018;2023-05-16T16:01:16;22.20;99.90
6988;DHT22;3534;49.960;8.018;2023-05-16T16:03:44;22.10;99.90
6988;DHT22;3534;49.960;8.018;2023-05-16T16:06:11;21.90;99.90